Lanyon, Iowa
Current Conditions -  °F | °C
As of 5:15 PM on Thursday 27 Nov 2014 (Local Time) from KFOD Reporting Station
Overcast Overcast  
Wind Chill: -10°   Ceiling: 5000
Heat Index:   Visibility: 10mi
Dew Point: -4°   Wind: 8mph
Humidity: 72%   Direction: 110°ESE
Pressure: 30.38"   Gusts: NA
Location:  42.251°N, 94.2206°W
Report Text: KFOD 272315Z AUTO 11007KT 10SM FEW048 OVC050 M16/M20 A3038 RMK AO1
Loading
Personal Weather Stations






























Interactive Weather Map New forecast layout! Learn more

10-Day Weather Forecast

Advertisements
Track Severe Weather on mobile